createdAt,value
2018-01-29T00:00:37.631Z,15.2
2018-01-29T00:01:40.422Z,15.2
2018-01-29T00:02:42.916Z,15.2
2018-01-29T00:03:45.702Z,15.2
2018-01-29T00:04:48.213Z,15.3
2018-01-29T00:05:50.705Z,15.2
2018-01-29T00:06:53.193Z,15.2
2018-01-29T00:07:55.698Z,15.3
2018-01-29T00:08:58.204Z,15.3
2018-01-29T00:10:01.001Z,15.2
2018-01-29T00:11:03.779Z,15.3
2018-01-29T00:12:06.276Z,15.2
2018-01-29T00:13:08.775Z,15.2
2018-01-29T00:14:11.278Z,15.2
2018-01-29T00:15:14.061Z,15.2
2018-01-29T00:16:16.562Z,15.3
2018-01-29T00:17:19.052Z,15.3
2018-01-29T00:18:21.566Z,15.3
2018-01-29T00:19:24.065Z,15.3
2018-01-29T00:20:26.571Z,15.3
2018-01-29T00:21:29.346Z,15.3
2018-01-29T00:22:31.854Z,15.3
2018-01-29T00:23:34.350Z,15.3
2018-01-29T00:24:36.853Z,15.3
2018-01-29T00:25:39.354Z,15.3
2018-01-29T00:26:41.841Z,15.3
2018-01-29T00:27:44.343Z,15.3
2018-01-29T00:28:46.840Z,15.3
2018-01-29T00:29:49.327Z,15.3
2018-01-29T00:30:51.823Z,15.3
2018-01-29T00:31:54.315Z,15.3
2018-01-29T00:32:56.830Z,15.3
2018-01-29T00:33:59.329Z,15.3
2018-01-29T00:35:01.831Z,15.3
2018-01-29T00:36:04.327Z,15.4
2018-01-29T00:37:06.825Z,15.4
2018-01-29T00:38:09.327Z,15.4
2018-01-29T00:39:11.818Z,15.4
2018-01-29T00:40:14.622Z,15.4
2018-01-29T00:41:17.415Z,15.4
2018-01-29T00:42:19.892Z,15.3
2018-01-29T00:43:22.403Z,15.3
2018-01-29T00:44:24.897Z,15.3
2018-01-29T00:45:27.403Z,15.3
2018-01-29T00:46:29.907Z,15.3
2018-01-29T00:47:32.400Z,15.3
2018-01-29T00:48:35.186Z,15.3
2018-01-29T00:49:37.696Z,15.3
2018-01-29T00:50:40.196Z,15.3
2018-01-29T00:51:42.987Z,15.3
2018-01-29T00:52:45.484Z,15.3
2018-01-29T00:53:47.983Z,15.3
2018-01-29T00:54:50.500Z,15.3
2018-01-29T00:55:52.997Z,15.3
2018-01-29T00:56:55.484Z,15.3
2018-01-29T00:57:57.993Z,15.3
2018-01-29T00:59:00.486Z,15.3
2018-01-29T01:00:02.986Z,15.3
2018-01-29T01:01:05.479Z,15.3
2018-01-29T01:02:07.973Z,15.3
2018-01-29T01:03:10.468Z,15.3
2018-01-29T01:04:12.986Z,15.3
2018-01-29T01:05:15.470Z,15.3
2018-01-29T01:06:17.983Z,15.3
2018-01-29T01:07:20.480Z,15.3
2018-01-29T01:08:23.561Z,15.3
2018-01-29T01:09:26.063Z,15.3
2018-01-29T01:10:28.854Z,15.3
2018-01-29T01:11:31.351Z,15.3
2018-01-29T01:12:33.854Z,15.2
2018-01-29T01:13:36.350Z,15.2
2018-01-29T01:14:38.845Z,15.2
2018-01-29T01:15:41.369Z,15.2
2018-01-29T01:16:43.860Z,15.2
2018-01-29T01:17:46.365Z,15.3
2018-01-29T01:18:48.862Z,15.3
2018-01-29T01:19:51.642Z,15.3
2018-01-29T01:20:54.160Z,15.3
2018-01-29T01:21:56.658Z,15.3
2018-01-29T01:22:59.144Z,15.3
2018-01-29T01:24:01.647Z,15.3
2018-01-29T01:25:04.147Z,15.3
2018-01-29T01:26:06.646Z,15.3
2018-01-29T01:27:09.140Z,15.3
2018-01-29T01:28:11.628Z,15.3
2018-01-29T01:29:14.124Z,15.4
2018-01-29T01:30:16.637Z,15.3
2018-01-29T01:31:19.128Z,15.4
2018-01-29T01:32:21.627Z,15.4
2018-01-29T01:33:24.409Z,15.4
2018-01-29T01:34:26.917Z,15.4
2018-01-29T01:35:29.407Z,15.4
2018-01-29T01:36:31.907Z,15.4
2018-01-29T01:37:34.410Z,15.4
2018-01-29T01:38:36.916Z,15.5
2018-01-29T01:39:39.408Z,15.4
2018-01-29T01:40:41.916Z,15.4
2018-01-29T01:41:44.416Z,15.4
2018-01-29T01:42:46.909Z,15.4
2018-01-29T01:43:49.409Z,15.4
2018-01-29T01:44:52.221Z,15.4
2018-01-29T01:45:54.718Z,15.4
2018-01-29T01:46:57.223Z,15.5
2018-01-29T01:47:59.719Z,15.5
2018-01-29T01:49:02.212Z,15.5
2018-01-29T01:50:04.711Z,15.5
2018-01-29T01:51:07.217Z,15.5
2018-01-29T01:52:09.719Z,15.5
2018-01-29T01:53:12.221Z,15.5
2018-01-29T01:54:14.988Z,15.5
2018-01-29T01:55:17.496Z,15.5
2018-01-29T01:56:20.002Z,15.4
2018-01-29T01:57:22.491Z,15.5
2018-01-29T01:58:24.997Z,15.5
2018-01-29T01:59:27.780Z,15.5
2018-01-29T02:00:30.277Z,15.5
2018-01-29T02:01:32.788Z,15.5
2018-01-29T02:02:35.280Z,15.5
2018-01-29T02:03:37.781Z,15.5
2018-01-29T02:04:40.282Z,15.5
2018-01-29T02:05:43.067Z,15.5
2018-01-29T02:06:45.574Z,15.5
2018-01-29T02:07:48.377Z,15.5
2018-01-29T02:08:50.884Z,15.5
2018-01-29T02:09:53.384Z,15.4
2018-01-29T02:10:55.877Z,15.4
2018-01-29T02:11:58.381Z,15.4
2018-01-29T02:13:00.879Z,15.4
2018-01-29T02:14:03.370Z,15.4
2018-01-29T02:15:06.176Z,15.4
2018-01-29T02:16:08.983Z,15.3
2018-01-29T02:17:11.482Z,15.3
2018-01-29T02:18:13.987Z,15.3
2018-01-29T02:19:16.486Z,15.3
2018-01-29T02:20:18.989Z,15.3
2018-01-29T02:21:21.483Z,15.3
2018-01-29T02:22:23.974Z,15.3
2018-01-29T02:23:26.780Z,15.3
2018-01-29T02:24:29.273Z,15.3
2018-01-29T02:25:31.767Z,15.2
2018-01-29T02:26:34.269Z,15.2
2018-01-29T02:27:36.771Z,15.2
2018-01-29T02:28:39.270Z,15.2
2018-01-29T02:29:41.782Z,15.2
2018-01-29T02:30:44.276Z,15.1
2018-01-29T02:31:47.061Z,15.1
2018-01-29T02:32:49.561Z,15.2
2018-01-29T02:33:52.061Z,15.2
2018-01-29T02:34:54.568Z,15.2
2018-01-29T02:35:57.362Z,15.2
2018-01-29T02:36:59.858Z,15.2
2018-01-29T02:38:02.369Z,15.1
2018-01-29T02:39:05.147Z,15.1
2018-01-29T02:40:07.945Z,15.1
2018-01-29T02:41:10.448Z,15.1
2018-01-29T02:42:12.933Z,15.1
2018-01-29T02:43:15.430Z,15.1
2018-01-29T02:44:17.924Z,15.1
2018-01-29T02:45:20.417Z,15.1
2018-01-29T02:46:22.935Z,15.1
2018-01-29T02:47:25.435Z,15
2018-01-29T02:48:27.919Z,15
2018-01-29T02:49:31.004Z,15.1
2018-01-29T02:50:33.800Z,15
2018-01-29T02:51:36.593Z,15
2018-01-29T02:52:39.426Z,15
2018-01-29T02:53:41.912Z,15.1
2018-01-29T02:54:44.414Z,15
2018-01-29T02:55:46.921Z,15.1
2018-01-29T02:56:49.427Z,15
2018-01-29T02:57:51.925Z,15
2018-01-29T02:58:54.419Z,15
2018-01-29T02:59:56.916Z,15
2018-01-29T03:00:59.733Z,15
2018-01-29T03:02:02.235Z,15
2018-01-29T03:03:04.718Z,15
2018-01-29T03:04:07.224Z,15
2018-01-29T03:05:09.721Z,15
2018-01-29T03:06:12.219Z,15
2018-01-29T03:07:15.001Z,15
2018-01-29T03:08:17.507Z,15
2018-01-29T03:09:20.008Z,15
2018-01-29T03:10:22.495Z,15
2018-01-29T03:11:24.999Z,15
2018-01-29T03:12:27.495Z,15
2018-01-29T03:13:29.992Z,15
2018-01-29T03:14:32.486Z,15
2018-01-29T03:15:34.981Z,15
2018-01-29T03:16:37.486Z,15
2018-01-29T03:17:39.996Z,15
2018-01-29T03:18:42.489Z,15.1
2018-01-29T03:19:45.273Z,15
2018-01-29T03:20:47.778Z,15
2018-01-29T03:21:50.269Z,15
2018-01-29T03:22:52.771Z,15
2018-01-29T03:23:55.268Z,15
2018-01-29T03:24:57.768Z,15
2018-01-29T03:26:00.266Z,15
2018-01-29T03:27:02.774Z,15
2018-01-29T03:28:05.258Z,15
2018-01-29T03:29:07.758Z,15
2018-01-29T03:30:10.259Z,15
2018-01-29T03:31:12.753Z,15
2018-01-29T03:32:15.257Z,15
2018-01-29T03:33:17.759Z,15
2018-01-29T03:34:20.248Z,15
2018-01-29T03:35:22.752Z,15
2018-01-29T03:36:25.533Z,15
2018-01-29T03:37:28.041Z,15
2018-01-29T03:38:30.539Z,15
2018-01-29T03:39:33.040Z,15
2018-01-29T03:40:35.541Z,15
2018-01-29T03:41:38.343Z,15
2018-01-29T03:42:40.838Z,15
2018-01-29T03:43:43.337Z,15
2018-01-29T03:44:45.829Z,15.1
2018-01-29T03:45:48.910Z,15.1
2018-01-29T03:46:51.409Z,15
2018-01-29T03:47:53.913Z,15
2018-01-29T03:48:56.417Z,15
2018-01-29T03:49:59.202Z,15
2018-01-29T03:51:01.996Z,15
2018-01-29T03:52:04.501Z,15.1
2018-01-29T03:53:07.272Z,15.1
2018-01-29T03:54:09.778Z,15
2018-01-29T03:55:12.575Z,15.1
2018-01-29T03:56:15.067Z,15.1
2018-01-29T03:57:17.566Z,15.1
2018-01-29T03:58:20.066Z,15.1
2018-01-29T03:59:22.556Z,15.1
2018-01-29T04:00:25.066Z,15.1
2018-01-29T04:01:27.563Z,15.1
2018-01-29T04:02:30.055Z,15.1
2018-01-29T04:03:32.560Z,15.1
2018-01-29T04:04:35.060Z,15.1
2018-01-29T04:05:37.555Z,15.1
2018-01-29T04:06:40.062Z,15.1
2018-01-29T04:07:42.554Z,15.1
2018-01-29T04:08:45.059Z,15.1
2018-01-29T04:09:47.832Z,15.1
2018-01-29T04:10:50.338Z,15.1
2018-01-29T04:11:52.836Z,15.1
2018-01-29T04:12:55.337Z,15.1
2018-01-29T04:13:57.833Z,15.1
2018-01-29T04:15:00.335Z,15.1
2018-01-29T04:16:02.825Z,15.1
2018-01-29T04:17:05.344Z,15.1
2018-01-29T04:18:07.825Z,15.1
2018-01-29T04:19:10.343Z,15.1
2018-01-29T04:20:12.839Z,15.1
2018-01-29T04:21:15.328Z,15.1
2018-01-29T04:22:17.823Z,15.1
2018-01-29T04:23:20.320Z,15.1
2018-01-29T04:24:22.817Z,15.1
2018-01-29T04:25:25.334Z,15.1
2018-01-29T04:26:28.110Z,15.1
2018-01-29T04:27:30.607Z,15.1
2018-01-29T04:28:33.120Z,15.1
2018-01-29T04:29:35.616Z,15
2018-01-29T04:30:38.114Z,15.1
2018-01-29T04:31:40.613Z,15
2018-01-29T04:32:43.107Z,15
2018-01-29T04:33:45.592Z,15
2018-01-29T04:34:48.089Z,15
2018-01-29T04:35:50.594Z,15
2018-01-29T04:36:53.093Z,15
2018-01-29T04:37:55.579Z,14.9
2018-01-29T04:38:58.082Z,14.9
2018-01-29T04:40:00.860Z,14.9
2018-01-29T04:41:03.432Z,14.9
2018-01-29T04:42:05.927Z,14.8
2018-01-29T04:43:08.408Z,14.8
2018-01-29T04:44:10.909Z,14.8
2018-01-29T04:45:13.415Z,14.8
2018-01-29T04:46:15.915Z,14.8
2018-01-29T04:47:18.698Z,14.7
2018-01-29T04:48:21.199Z,14.7
2018-01-29T04:49:23.700Z,14.7
2018-01-29T04:50:26.208Z,14.7
2018-01-29T04:51:28.708Z,14.7
2018-01-29T04:52:31.185Z,14.7
2018-01-29T04:53:33.694Z,14.7
2018-01-29T04:54:36.477Z,14.7
2018-01-29T04:55:38.980Z,14.7
2018-01-29T04:56:41.769Z,14.7
2018-01-29T04:57:44.562Z,14.7
2018-01-29T04:58:47.352Z,14.7
2018-01-29T04:59:50.152Z,14.7
2018-01-29T05:00:52.645Z,14.7
2018-01-29T05:01:55.145Z,14.7
2018-01-29T05:02:57.641Z,14.7
2018-01-29T05:04:00.146Z,14.7
2018-01-29T05:05:02.929Z,14.8
2018-01-29T05:06:05.438Z,14.8
2018-01-29T05:07:07.916Z,14.8
2018-01-29T05:08:10.707Z,14.7
2018-01-29T05:09:13.219Z,14.8
2018-01-29T05:10:15.716Z,14.8
2018-01-29T05:11:18.220Z,14.7
2018-01-29T05:12:20.712Z,14.8
2018-01-29T05:13:23.204Z,14.8
2018-01-29T05:14:25.721Z,14.8
2018-01-29T05:15:28.295Z,14.8
2018-01-29T05:16:30.783Z,14.8
2018-01-29T05:17:33.291Z,14.8
2018-01-29T05:18:35.775Z,14.8
2018-01-29T05:19:38.273Z,14.8
2018-01-29T05:20:40.780Z,14.8
2018-01-29T05:21:43.275Z,14.8
2018-01-29T05:22:45.771Z,14.8
2018-01-29T05:23:48.282Z,14.8
2018-01-29T05:24:51.053Z,14.8
2018-01-29T05:25:53.572Z,14.7
2018-01-29T05:26:56.069Z,14.8
2018-01-29T05:27:58.573Z,14.8
2018-01-29T05:29:01.066Z,14.7
2018-01-29T05:30:03.564Z,14.7
2018-01-29T05:31:06.059Z,14.7
2018-01-29T05:32:08.558Z,14.7
2018-01-29T05:33:11.055Z,14.7
2018-01-29T05:34:13.552Z,14.7
2018-01-29T05:35:16.059Z,14.7
2018-01-29T05:36:18.845Z,14.7
2018-01-29T05:37:21.345Z,14.7
2018-01-29T05:38:23.837Z,14.6
2018-01-29T05:39:26.334Z,14.7
2018-01-29T05:40:28.833Z,14.7
2018-01-29T05:41:31.322Z,14.6
2018-01-29T05:42:33.815Z,14.6
2018-01-29T05:43:36.599Z,14.6
2018-01-29T05:44:39.382Z,14.6
2018-01-29T05:45:41.884Z,14.7
2018-01-29T05:46:44.376Z,14.7
2018-01-29T05:47:46.913Z,14.7
2018-01-29T05:48:49.376Z,14.6
2018-01-29T05:49:51.858Z,14.7
2018-01-29T05:50:54.356Z,14.7
2018-01-29T05:51:57.466Z,14.7
2018-01-29T05:53:00.000Z,14.6
2018-01-29T05:54:02.457Z,14.7
2018-01-29T05:55:04.959Z,14.7
2018-01-29T05:56:07.457Z,14.6
2018-01-29T05:57:09.966Z,14.7
2018-01-29T05:58:12.469Z,14.7
2018-01-29T05:59:14.948Z,14.7
2018-01-29T06:00:17.448Z,14.7
2018-01-29T06:01:19.953Z,14.6
2018-01-29T06:02:22.447Z,14.6
2018-01-29T06:03:24.945Z,14.6
2018-01-29T06:04:28.038Z,14.7
2018-01-29T06:05:30.536Z,14.7
2018-01-29T06:06:33.021Z,14.7
2018-01-29T06:07:35.523Z,14.7
2018-01-29T06:08:38.020Z,14.7
2018-01-29T06:09:40.808Z,14.7
2018-01-29T06:10:43.615Z,14.7
2018-01-29T06:11:46.099Z,14.7
2018-01-29T06:12:48.599Z,14.7
2018-01-29T06:13:51.109Z,14.6
2018-01-29T06:14:53.600Z,14.6
2018-01-29T06:15:56.104Z,14.6
2018-01-29T06:16:58.604Z,14.7
2018-01-29T06:18:01.094Z,14.7
2018-01-29T06:19:03.598Z,14.7
2018-01-29T06:20:06.094Z,14.7
2018-01-29T06:21:08.867Z,14.7
2018-01-29T06:22:11.370Z,14.7
2018-01-29T06:23:13.863Z,14.7
2018-01-29T06:24:16.354Z,14.7
2018-01-29T06:25:18.866Z,14.7
2018-01-29T06:26:21.364Z,14.7
2018-01-29T06:27:23.860Z,14.7
2018-01-29T06:28:26.366Z,14.7
2018-01-29T06:29:28.866Z,14.7
2018-01-29T06:30:31.361Z,14.7
2018-01-29T06:31:33.856Z,14.7
2018-01-29T06:32:36.364Z,14.7
2018-01-29T06:33:38.865Z,14.6
2018-01-29T06:34:41.651Z,14.6
2018-01-29T06:35:44.146Z,14.6
2018-01-29T06:36:46.651Z,14.6
2018-01-29T06:37:49.428Z,14.6
2018-01-29T06:38:51.944Z,14.6
2018-01-29T06:39:54.431Z,14.6
2018-01-29T06:40:56.931Z,14.6
2018-01-29T06:41:59.432Z,14.6
2018-01-29T06:43:01.932Z,14.6
2018-01-29T06:44:04.433Z,14.6
2018-01-29T06:45:07.217Z,14.7
2018-01-29T06:46:09.707Z,14.6
2018-01-29T06:47:12.216Z,14.6
2018-01-29T06:48:15.009Z,14.6
2018-01-29T06:49:17.496Z,14.6
2018-01-29T06:50:20.002Z,14.6
2018-01-29T06:51:22.504Z,14.6
2018-01-29T06:52:25.001Z,14.6
2018-01-29T06:53:27.498Z,14.7
2018-01-29T06:54:29.993Z,14.6
2018-01-29T06:55:32.487Z,14.7
2018-01-29T06:56:35.001Z,14.6
2018-01-29T06:57:37.494Z,14.7
2018-01-29T06:58:39.993Z,14.6
2018-01-29T06:59:42.485Z,14.6
2018-01-29T07:00:44.981Z,14.6
2018-01-29T07:01:47.489Z,14.6
2018-01-29T07:02:50.269Z,14.6
2018-01-29T07:03:52.771Z,14.6
2018-01-29T07:04:55.549Z,14.6
2018-01-29T07:05:58.055Z,14.6
2018-01-29T07:07:00.552Z,14.6
2018-01-29T07:08:03.330Z,14.6
2018-01-29T07:09:05.832Z,14.6
2018-01-29T07:10:08.330Z,14.6
2018-01-29T07:11:10.832Z,14.6
2018-01-29T07:12:13.336Z,14.6
2018-01-29T07:13:15.820Z,14.6
2018-01-29T07:14:18.315Z,14.6
2018-01-29T07:15:20.827Z,14.6
2018-01-29T07:16:23.618Z,14.6
2018-01-29T07:17:26.113Z,14.6
2018-01-29T07:18:28.612Z,14.6
2018-01-29T07:19:31.100Z,14.6
2018-01-29T07:20:33.618Z,14.6
2018-01-29T07:21:36.124Z,14.6
2018-01-29T07:22:38.612Z,14.6
2018-01-29T07:23:41.107Z,14.6
2018-01-29T07:24:43.601Z,14.6
2018-01-29T07:25:46.104Z,14.6
2018-01-29T07:26:48.604Z,14.6
2018-01-29T07:27:51.096Z,14.6
2018-01-29T07:28:53.594Z,14.6
2018-01-29T07:29:56.104Z,14.6
2018-01-29T07:30:58.594Z,14.6
2018-01-29T07:32:01.092Z,14.6
2018-01-29T07:33:03.581Z,14.6
2018-01-29T07:34:06.079Z,14.6
2018-01-29T07:35:08.576Z,14.5
2018-01-29T07:36:11.073Z,14.6
2018-01-29T07:37:13.581Z,14.6
2018-01-29T07:38:16.073Z,14.5
2018-01-29T07:39:18.864Z,14.5
2018-01-29T07:40:21.369Z,14.5
2018-01-29T07:41:23.870Z,14.5
2018-01-29T07:42:26.363Z,14.5
2018-01-29T07:43:29.161Z,14.5
2018-01-29T07:44:31.945Z,14.5
2018-01-29T07:45:34.736Z,14.5
2018-01-29T07:46:37.230Z,14.5
2018-01-29T07:47:39.727Z,14.6
2018-01-29T07:48:42.224Z,14.5
2018-01-29T07:49:44.724Z,14.6
2018-01-29T07:50:47.225Z,14.5
2018-01-29T07:51:49.737Z,14.5
2018-01-29T07:52:52.228Z,14.5
2018-01-29T07:53:54.725Z,14.5
2018-01-29T07:54:57.229Z,14.5
2018-01-29T07:55:59.718Z,14.5
2018-01-29T07:57:02.217Z,14.5
2018-01-29T07:58:05.018Z,14.5
2018-01-29T07:59:07.792Z,14.5
2018-01-29T08:00:10.299Z,14.5
2018-01-29T08:01:12.802Z,14.5
2018-01-29T08:02:15.325Z,14.5
2018-01-29T08:03:17.785Z,14.5
2018-01-29T08:04:20.286Z,14.5
2018-01-29T08:05:22.794Z,14.5
2018-01-29T08:06:25.287Z,14.5
2018-01-29T08:07:27.782Z,14.4
2018-01-29T08:08:30.284Z,14.5
2018-01-29T08:09:32.781Z,14.4
2018-01-29T08:10:35.288Z,14.4
2018-01-29T08:11:38.079Z,14.4
2018-01-29T08:12:40.556Z,14.4
2018-01-29T08:13:43.064Z,14.4
2018-01-29T08:14:45.558Z,14.4
2018-01-29T08:15:48.350Z,14.4
2018-01-29T08:16:50.850Z,14.4
2018-01-29T08:17:53.328Z,14.4
2018-01-29T08:18:55.834Z,14.4
2018-01-29T08:19:58.345Z,14.3
2018-01-29T08:21:00.841Z,14.3
2018-01-29T08:22:03.340Z,14.4
2018-01-29T08:23:05.835Z,14.3
2018-01-29T08:24:08.335Z,14.3
2018-01-29T08:25:10.843Z,14.3
2018-01-29T08:26:13.628Z,14.3
2018-01-29T08:27:16.115Z,14.3
2018-01-29T08:28:18.611Z,14.3
2018-01-29T08:29:21.104Z,14.3
2018-01-29T08:30:23.609Z,14.3
2018-01-29T08:31:26.101Z,14.3
2018-01-29T08:32:28.605Z,14.3
2018-01-29T08:33:31.394Z,14.3
2018-01-29T08:34:33.894Z,14.3
2018-01-29T08:35:36.385Z,14.3
2018-01-29T08:36:39.190Z,14.3
2018-01-29T08:37:41.966Z,14.3
2018-01-29T08:38:44.478Z,14.3
2018-01-29T08:39:46.973Z,14.3
2018-01-29T08:40:49.474Z,14.3
2018-01-29T08:41:51.970Z,14.3
2018-01-29T08:42:54.823Z,14.3
2018-01-29T08:43:57.288Z,14.3
2018-01-29T08:44:59.806Z,14.3
2018-01-29T08:46:02.293Z,14.3
2018-01-29T08:47:04.793Z,14.3
2018-01-29T08:48:07.286Z,14.3
2018-01-29T08:49:09.788Z,14.3
2018-01-29T08:50:12.277Z,14.3
2018-01-29T08:51:14.793Z,14.4
2018-01-29T08:52:17.845Z,14.3
2018-01-29T08:53:20.353Z,14.3
2018-01-29T08:54:22.849Z,14.3
2018-01-29T08:55:25.346Z,14.3
2018-01-29T08:56:28.140Z,14.3
2018-01-29T08:57:30.641Z,14.3
2018-01-29T08:58:33.129Z,14.4
2018-01-29T08:59:36.203Z,14.3
2018-01-29T09:00:38.986Z,14.3
2018-01-29T09:01:41.475Z,14.4
2018-01-29T09:02:44.285Z,14.3
2018-01-29T09:03:46.781Z,14.3
2018-01-29T09:04:49.271Z,14.3
2018-01-29T09:05:51.764Z,14.3
2018-01-29T09:06:54.577Z,14.3
2018-01-29T09:07:57.068Z,14.4
2018-01-29T09:08:59.573Z,14.3
2018-01-29T09:10:02.352Z,14.4
2018-01-29T09:11:04.849Z,14.3
2018-01-29T09:12:07.361Z,14.4
2018-01-29T09:13:09.862Z,14.4
2018-01-29T09:14:12.358Z,14.4
2018-01-29T09:15:14.853Z,14.4
2018-01-29T09:16:17.346Z,14.4
2018-01-29T09:17:19.851Z,14.5
2018-01-29T09:18:22.632Z,14.5
2018-01-29T09:19:25.122Z,14.5
2018-01-29T09:20:27.621Z,14.5
2018-01-29T09:21:30.128Z,14.5
2018-01-29T09:22:32.624Z,14.5
2018-01-29T09:23:35.420Z,14.5
2018-01-29T09:24:37.908Z,14.5
2018-01-29T09:25:40.408Z,14.5
2018-01-29T09:26:42.922Z,14.5
2018-01-29T09:27:45.714Z,14.5
2018-01-29T09:28:48.209Z,14.6
2018-01-29T09:29:50.703Z,14.6
2018-01-29T09:30:53.203Z,14.5
2018-01-29T09:31:55.701Z,14.5
2018-01-29T09:32:58.198Z,14.5
2018-01-29T09:34:00.709Z,14.5
2018-01-29T09:35:03.210Z,14.5
2018-01-29T09:36:05.688Z,14.5
2018-01-29T09:37:08.203Z,14.5
2018-01-29T09:38:10.686Z,14.5
2018-01-29T09:39:13.502Z,14.5
2018-01-29T09:40:16.002Z,14.5
2018-01-29T09:41:18.495Z,14.5
2018-01-29T09:42:20.992Z,14.5
2018-01-29T09:43:23.796Z,14.6
2018-01-29T09:44:26.298Z,14.5
2018-01-29T09:45:28.796Z,14.6
2018-01-29T09:46:31.299Z,14.5
2018-01-29T09:47:33.792Z,14.6
2018-01-29T09:48:36.299Z,14.6
2018-01-29T09:49:38.797Z,14.5
2018-01-29T09:50:41.878Z,14.6
2018-01-29T09:51:44.682Z,14.6
2018-01-29T09:52:47.173Z,14.5
2018-01-29T09:53:49.964Z,14.5
2018-01-29T09:54:52.745Z,14.5
2018-01-29T09:55:55.529Z,14.5
2018-01-29T09:56:58.025Z,14.5
2018-01-29T09:58:00.542Z,14.6
2018-01-29T09:59:03.040Z,14.5
2018-01-29T10:00:05.818Z,14.5
2018-01-29T10:01:08.315Z,14.5
2018-01-29T10:02:10.826Z,14.5
2018-01-29T10:03:13.315Z,14.5
2018-01-29T10:04:15.814Z,14.5
2018-01-29T10:05:18.665Z,14.5
2018-01-29T10:06:21.448Z,14.5
2018-01-29T10:07:23.955Z,14.5
2018-01-29T10:08:26.453Z,14.5
2018-01-29T10:09:28.950Z,14.4
2018-01-29T10:10:31.447Z,14.4
2018-01-29T10:11:33.950Z,14.4
2018-01-29T10:12:36.442Z,14.4
2018-01-29T10:13:38.960Z,14.4
2018-01-29T10:14:41.433Z,14.4
2018-01-29T10:15:43.932Z,14.4
2018-01-29T10:16:46.752Z,14.4
2018-01-29T10:17:49.513Z,14.4
2018-01-29T10:18:52.032Z,14.3
2018-01-29T10:19:54.840Z,14.3
2018-01-29T10:20:57.713Z,14.3
2018-01-29T10:22:00.539Z,14.3
2018-01-29T10:23:03.300Z,14.3
2018-01-29T10:24:05.963Z,14.3
2018-01-29T10:25:08.470Z,14.2
2018-01-29T10:26:10.973Z,14.3
2018-01-29T10:27:13.477Z,14.3
2018-01-29T10:28:16.272Z,14.2
2018-01-29T10:29:18.769Z,14.2
2018-01-29T10:30:21.267Z,14.3
2018-01-29T10:31:24.046Z,14.2
2018-01-29T10:32:26.548Z,14.3
2018-01-29T10:33:29.063Z,14.3
2018-01-29T10:34:31.554Z,14.3
2018-01-29T10:35:34.053Z,14.3
2018-01-29T10:36:36.553Z,14.2
2018-01-29T10:37:39.050Z,14.3
2018-01-29T10:38:41.551Z,14.2
2018-01-29T10:39:44.045Z,14.3
2018-01-29T10:40:46.530Z,14.2
2018-01-29T10:41:49.046Z,14.2
2018-01-29T10:42:51.539Z,14.2
2018-01-29T10:43:54.037Z,14.2
2018-01-29T10:44:56.540Z,14.3
2018-01-29T10:45:59.329Z,14.2
2018-01-29T10:47:01.825Z,14.3
2018-01-29T10:48:04.333Z,14.3
2018-01-29T10:49:06.827Z,14.3
2018-01-29T10:50:09.328Z,14.3
2018-01-29T10:51:11.822Z,14.3
2018-01-29T10:52:14.323Z,14.3
2018-01-29T10:53:16.821Z,14.4
2018-01-29T10:54:19.320Z,14.4
2018-01-29T10:55:21.807Z,14.4
2018-01-29T10:56:24.887Z,14.4
2018-01-29T10:57:27.685Z,14.3
2018-01-29T10:58:30.191Z,14.4
2018-01-29T10:59:32.682Z,14.3
2018-01-29T11:00:35.183Z,14.3
2018-01-29T11:01:37.677Z,14.3
2018-01-29T11:02:40.178Z,14.3
2018-01-29T11:03:42.670Z,14.3
2018-01-29T11:04:45.185Z,14.3
2018-01-29T11:05:47.670Z,14.3
2018-01-29T11:06:50.475Z,14.3
2018-01-29T11:07:52.969Z,14.2
2018-01-29T11:08:55.466Z,14.2
2018-01-29T11:09:57.992Z,14.2
2018-01-29T11:11:00.490Z,14.2
2018-01-29T11:12:03.269Z,14.2
2018-01-29T11:13:06.055Z,14.2
2018-01-29T11:14:08.831Z,14.2
2018-01-29T11:15:11.326Z,14.1
2018-01-29T11:16:13.833Z,14.1
2018-01-29T11:17:16.610Z,14.1
2018-01-29T11:18:19.101Z,14.1
2018-01-29T11:19:21.899Z,14.1
2018-01-29T11:20:24.395Z,14.1
2018-01-29T11:21:26.894Z,14.1
2018-01-29T11:22:29.392Z,14.1
2018-01-29T11:23:32.164Z,14.1
2018-01-29T11:24:34.669Z,14.1
2018-01-29T11:25:37.168Z,14.1
2018-01-29T11:26:39.664Z,14.1
2018-01-29T11:27:42.745Z,14.1
2018-01-29T11:28:45.544Z,14.2
2018-01-29T11:29:48.048Z,14.2
2018-01-29T11:30:50.530Z,14.1
2018-01-29T11:31:53.022Z,14.1
2018-01-29T11:32:55.526Z,14.1
2018-01-29T11:33:58.021Z,14
2018-01-29T11:35:00.810Z,14
2018-01-29T11:36:03.304Z,14
2018-01-29T11:37:05.800Z,14
2018-01-29T11:38:08.308Z,14
2018-01-29T11:39:11.157Z,14
2018-01-29T11:40:13.652Z,14
2018-01-29T11:41:16.156Z,14
2018-01-29T11:42:18.656Z,14
2018-01-29T11:43:21.148Z,14
2018-01-29T11:44:23.649Z,14
2018-01-29T11:45:26.145Z,14
2018-01-29T11:46:28.644Z,14
2018-01-29T11:47:31.434Z,14
2018-01-29T11:48:33.924Z,14
2018-01-29T11:49:36.426Z,14
2018-01-29T11:50:38.928Z,14
2018-01-29T11:51:41.708Z,14
2018-01-29T11:52:44.493Z,14
2018-01-29T11:53:46.990Z,13.9
2018-01-29T11:54:49.488Z,13.9
2018-01-29T11:55:51.985Z,13.9
2018-01-29T11:56:54.777Z,13.8
2018-01-29T11:57:57.563Z,13.8
2018-01-29T11:59:00.063Z,13.8
2018-01-29T12:00:02.559Z,13.8
2018-01-29T12:01:05.056Z,13.8
2018-01-29T12:02:07.543Z,13.7
2018-01-29T12:03:10.326Z,13.7
2018-01-29T12:04:13.130Z,13.7
2018-01-29T12:05:15.621Z,13.7
2018-01-29T12:06:18.115Z,13.7
2018-01-29T12:07:20.616Z,13.7
2018-01-29T12:08:23.106Z,13.7
2018-01-29T12:09:25.608Z,13.6
2018-01-29T12:10:28.105Z,13.7
2018-01-29T12:11:30.594Z,13.6
2018-01-29T12:12:33.097Z,13.6
2018-01-29T12:13:35.597Z,13.6
2018-01-29T12:14:38.090Z,13.6
2018-01-29T12:15:40.889Z,13.6
2018-01-29T12:16:43.385Z,13.6
2018-01-29T12:17:45.876Z,13.6
2018-01-29T12:18:48.377Z,13.5
2018-01-29T12:19:50.868Z,13.6
2018-01-29T12:20:53.371Z,13.6
2018-01-29T12:21:55.872Z,13.6
2018-01-29T12:22:58.346Z,13.6
2018-01-29T12:24:00.839Z,13.6
2018-01-29T12:25:03.345Z,13.6
2018-01-29T12:26:06.132Z,13.6
2018-01-29T12:27:08.620Z,13.6
2018-01-29T12:28:11.439Z,13.6
2018-01-29T12:29:13.931Z,13.6
2018-01-29T12:30:16.425Z,13.6
2018-01-29T12:31:19.213Z,13.6
2018-01-29T12:32:21.712Z,13.6
2018-01-29T12:33:24.210Z,13.6
2018-01-29T12:34:26.714Z,13.5
2018-01-29T12:35:29.208Z,13.5
2018-01-29T12:36:32.005Z,13.5
2018-01-29T12:37:34.511Z,13.5
2018-01-29T12:38:37.000Z,13.5
2018-01-29T12:39:39.492Z,13.4
2018-01-29T12:40:42.303Z,13.4
2018-01-29T12:41:44.801Z,13.4
2018-01-29T12:42:47.921Z,13.4
2018-01-29T12:43:50.414Z,13.4
2018-01-29T12:44:52.915Z,13.4
2018-01-29T12:45:55.403Z,13.4
2018-01-29T12:46:58.195Z,13.4
2018-01-29T12:48:00.692Z,13.4
2018-01-29T12:49:03.179Z,13.4
2018-01-29T12:50:05.683Z,13.4
2018-01-29T12:51:08.181Z,13.4
2018-01-29T12:52:10.959Z,13.4
2018-01-29T12:53:13.459Z,13.4
2018-01-29T12:54:15.947Z,13.4
2018-01-29T12:55:18.442Z,13.4
2018-01-29T12:56:20.959Z,13.4
2018-01-29T12:57:23.445Z,13.4
2018-01-29T12:58:25.947Z,13.3
2018-01-29T12:59:28.438Z,13.3
2018-01-29T13:00:30.931Z,13.3
2018-01-29T13:01:33.431Z,13.3
2018-01-29T13:02:35.924Z,13.3
2018-01-29T13:03:38.424Z,13.2
2018-01-29T13:04:40.920Z,13.2
2018-01-29T13:05:43.420Z,13.1
2018-01-29T13:06:45.920Z,13.1
2018-01-29T13:07:48.415Z,13.1
2018-01-29T13:08:50.903Z,13.2
2018-01-29T13:09:53.452Z,13.2
2018-01-29T13:10:55.904Z,13.2
2018-01-29T13:11:58.390Z,13.2
2018-01-29T13:13:00.911Z,13.1
2018-01-29T13:14:03.404Z,13.1
2018-01-29T13:15:05.893Z,13.1
2018-01-29T13:16:08.386Z,13.1
2018-01-29T13:17:10.876Z,13.1
2018-01-29T13:18:13.367Z,13.1
2018-01-29T13:19:15.871Z,13.1
2018-01-29T13:20:18.641Z,13.1
2018-01-29T13:21:21.138Z,13.1
2018-01-29T13:22:23.646Z,13.1
2018-01-29T13:23:26.139Z,13.1
2018-01-29T13:24:28.641Z,13.1
2018-01-29T13:25:31.143Z,13.1
2018-01-29T13:26:33.646Z,13.2
2018-01-29T13:27:36.128Z,13.2
2018-01-29T13:28:38.622Z,13.2
2018-01-29T13:29:41.411Z,13.2
2018-01-29T13:30:43.911Z,13.2
2018-01-29T13:31:46.400Z,13.2
2018-01-29T13:32:48.898Z,13.2
2018-01-29T13:33:51.397Z,13.2
2018-01-29T13:34:53.910Z,13.2
2018-01-29T13:35:56.408Z,13.2
2018-01-29T13:36:58.890Z,13.2
2018-01-29T13:38:01.389Z,13.2
2018-01-29T13:39:03.890Z,13.2
2018-01-29T13:40:06.385Z,13.2
2018-01-29T13:41:09.157Z,13.2
2018-01-29T13:42:11.656Z,13.2
2018-01-29T13:43:14.152Z,13.2
2018-01-29T13:44:16.658Z,13.2
2018-01-29T13:45:19.149Z,13.2
2018-01-29T13:46:21.641Z,13.2
2018-01-29T13:47:24.130Z,13.2
2018-01-29T13:48:26.922Z,13.2
2018-01-29T13:49:29.420Z,13.2
2018-01-29T13:50:31.917Z,13.2
2018-01-29T13:51:34.413Z,13.2
2018-01-29T13:52:36.929Z,13.2
2018-01-29T13:53:39.434Z,13.2
2018-01-29T13:54:42.244Z,13.2
2018-01-29T13:55:45.058Z,13.2
2018-01-29T13:56:47.565Z,13.2
2018-01-29T13:57:50.078Z,13.2
2018-01-29T13:58:52.581Z,13.2